Urundel, Argentina
Current Conditions -  °F | °C
As of 1:00 PM on Thursday 27 Nov 2014 (Local Time) from SASJ Reporting Station
Broken Clouds Broken Clouds  
Wind Chill: 79°   Ceiling: 10000
Heat Index: 80°   Visibility: 6mi
Dew Point: 63°   Wind: 5mph
Humidity: 57%   Direction: 90°E
Pressure: 30.06"   Gusts: NA
Location:  23.55°S, 64.42°W
Report Text: SASJ 271600Z 09004KT 9999 FEW020 SCT025BKN100 26/17 Q1018
Loading
Personal Weather Stations






























Interactive Weather Map New forecast layout! Learn more

10-Day Weather Forecast

Advertisements
Track Severe Weather on mobile